createdAt,value
2017-05-26T00:02:17.294Z,12.90
2017-05-26T00:04:46.078Z,13.00
2017-05-26T00:07:14.898Z,13.00
2017-05-26T00:09:43.759Z,12.80
2017-05-26T00:12:15.121Z,12.80
2017-05-26T00:14:43.895Z,12.80
2017-05-26T00:17:12.662Z,12.70
2017-05-26T00:19:43.550Z,12.50
2017-05-26T00:22:12.334Z,12.70
2017-05-26T00:24:41.310Z,12.80
2017-05-26T00:27:10.170Z,13.00
2017-05-26T00:29:38.982Z,12.90
2017-05-26T00:32:07.905Z,12.70
2017-05-26T00:34:36.754Z,12.50
2017-05-26T00:37:05.550Z,12.40
2017-05-26T00:39:34.398Z,12.40
2017-05-26T00:42:03.178Z,12.50
2017-05-26T00:44:31.994Z,12.70
2017-05-26T00:47:00.777Z,12.80
2017-05-26T00:49:29.621Z,12.80
2017-05-26T00:51:57.705Z,12.80
2017-05-26T00:54:26.625Z,12.60
2017-05-26T00:56:55.442Z,12.70
2017-05-26T00:59:25.261Z,12.70
2017-05-26T01:01:55.429Z,12.70
2017-05-26T01:04:25.418Z,12.70
2017-05-26T01:07:08.474Z,12.80
2017-05-26T01:09:37.266Z,12.90
2017-05-26T01:12:06.102Z,13.10
2017-05-26T01:14:34.977Z,13.00
2017-05-26T01:17:03.746Z,13.10
2017-05-26T01:19:33.401Z,12.90
2017-05-26T01:22:02.249Z,12.70
2017-05-26T01:24:31.045Z,12.50
2017-05-26T01:26:59.861Z,12.50
2017-05-26T01:29:28.665Z,12.50
2017-05-26T01:31:57.789Z,12.60
2017-05-26T01:34:26.786Z,12.60
2017-05-26T01:36:55.657Z,12.60
2017-05-26T01:39:24.424Z,12.70
2017-05-26T01:41:53.205Z,12.80
2017-05-26T01:44:23.041Z,12.90
2017-05-26T01:46:51.815Z,13.00
2017-05-26T01:49:20.609Z,13.10
2017-05-26T01:51:49.440Z,13.20
2017-05-26T01:54:18.237Z,13.30
2017-05-26T01:56:47.050Z,13.30
2017-05-26T01:59:15.848Z,13.40
2017-05-26T02:01:44.628Z,13.40
2017-05-26T02:04:13.421Z,13.40
2017-05-26T02:06:42.225Z,13.40
2017-05-26T02:09:11.029Z,13.40
2017-05-26T02:11:39.828Z,13.40
2017-05-26T02:14:08.645Z,13.50
2017-05-26T02:16:37.449Z,13.50
2017-05-26T02:19:06.225Z,13.40
2017-05-26T02:21:35.076Z,13.50
2017-05-26T02:24:03.896Z,13.50
2017-05-26T02:26:33.644Z,13.50
2017-05-26T02:29:02.452Z,13.50
2017-05-26T02:31:31.221Z,13.50
2017-05-26T02:34:00.996Z,13.50
2017-05-26T02:36:29.804Z,13.40
2017-05-26T02:38:58.573Z,13.40
2017-05-26T02:41:27.356Z,13.40
2017-05-26T02:43:56.233Z,13.40
2017-05-26T02:46:25.955Z,13.30
2017-05-26T02:48:54.745Z,13.30
2017-05-26T02:51:23.824Z,13.30
2017-05-26T02:53:52.568Z,13.30
2017-05-26T02:56:21.349Z,13.30
2017-05-26T02:58:51.224Z,13.30
2017-05-26T03:01:20.532Z,13.30
2017-05-26T03:03:49.841Z,13.30
2017-05-26T03:06:19.708Z,13.30
2017-05-26T03:08:48.501Z,13.40
2017-05-26T03:11:17.283Z,13.40
2017-05-26T03:13:46.073Z,13.30
2017-05-26T03:16:14.844Z,13.30
2017-05-26T03:18:43.623Z,13.30
2017-05-26T03:21:12.404Z,13.30
2017-05-26T03:23:41.188Z,13.20
2017-05-26T03:26:10.956Z,13.30
2017-05-26T03:28:39.860Z,13.20
2017-05-26T03:31:08.640Z,13.20
2017-05-26T03:33:37.430Z,12.90
2017-05-26T03:36:08.172Z,12.70
2017-05-26T03:38:36.952Z,12.70
2017-05-26T03:41:05.732Z,12.70
2017-05-26T03:43:34.516Z,12.70
2017-05-26T03:46:03.280Z,12.70
2017-05-26T03:48:32.083Z,12.50
2017-05-26T03:51:00.884Z,12.60
2017-05-26T03:53:29.675Z,12.60
2017-05-26T03:55:58.463Z,12.40
2017-05-26T03:58:27.360Z,12.40
2017-05-26T04:00:56.139Z,12.40
2017-05-26T04:03:25.867Z,12.50
2017-05-26T04:05:55.659Z,12.60
2017-05-26T04:08:24.468Z,12.60
2017-05-26T04:10:53.221Z,12.60
2017-05-26T04:13:22.048Z,12.60
2017-05-26T04:15:51.855Z,12.60
2017-05-26T04:18:20.623Z,12.60
2017-05-26T04:20:49.414Z,12.70
2017-05-26T04:23:18.196Z,12.80
2017-05-26T04:25:46.967Z,12.80
2017-05-26T04:28:15.766Z,12.90
2017-05-26T04:30:44.543Z,13.00
2017-05-26T04:33:13.317Z,13.10
2017-05-26T04:35:42.109Z,13.00
2017-05-26T04:38:10.878Z,13.10
2017-05-26T04:40:39.799Z,13.10
2017-05-26T04:43:08.634Z,13.20
2017-05-26T04:45:37.407Z,13.30
2017-05-26T04:48:06.187Z,13.50
2017-05-26T04:50:34.974Z,13.50
2017-05-26T04:53:03.746Z,13.50
2017-05-26T04:55:32.534Z,13.60
2017-05-26T04:58:01.331Z,13.70
2017-05-26T05:00:30.103Z,13.80
2017-05-26T05:02:58.883Z,13.80
2017-05-26T05:05:27.678Z,13.80
2017-05-26T05:07:56.458Z,13.90
2017-05-26T05:10:25.282Z,14.00
2017-05-26T05:12:54.070Z,14.20
2017-05-26T05:15:22.843Z,14.10
2017-05-26T05:17:51.615Z,14.30
2017-05-26T05:20:21.778Z,14.40
2017-05-26T05:22:53.014Z,14.40
2017-05-26T05:25:22.950Z,14.80
2017-05-26T05:27:55.358Z,14.90
2017-05-26T05:30:26.922Z,14.90
2017-05-26T05:32:56.571Z,15.00
2017-05-26T05:35:29.334Z,15.10
2017-05-26T05:38:00.654Z,15.20
2017-05-26T05:40:34.542Z,15.30
2017-05-26T05:43:06.014Z,15.40
2017-05-26T05:45:38.662Z,15.50
2017-05-26T05:48:11.603Z,15.60
2017-05-26T05:50:40.466Z,15.60
2017-05-26T05:53:12.527Z,15.70
2017-05-26T05:55:45.357Z,15.60
2017-05-26T05:58:15.493Z,16.00
2017-05-26T06:00:44.323Z,15.90
2017-05-26T06:03:14.638Z,16.20
2017-05-26T06:05:46.982Z,16.20
2017-05-26T06:08:18.854Z,16.30
2017-05-26T06:10:47.646Z,16.50
2017-05-26T06:13:19.546Z,16.60
2017-05-26T06:15:50.470Z,16.70
2017-05-26T06:18:19.250Z,16.70
2017-05-26T06:20:48.014Z,16.80
2017-05-26T06:23:16.810Z,16.90
2017-05-26T06:25:45.590Z,17.10
2017-05-26T06:28:14.358Z,16.90
2017-05-26T06:30:45.157Z,17.00
2017-05-26T06:33:13.942Z,17.10
2017-05-26T06:35:44.681Z,17.20
2017-05-26T06:38:13.465Z,17.30
2017-05-26T06:40:42.235Z,17.10
2017-05-26T06:43:12.042Z,17.20
2017-05-26T06:45:40.841Z,17.40
2017-05-26T06:48:09.609Z,17.60
2017-05-26T06:50:38.409Z,17.70
2017-05-26T06:53:14.109Z,17.70
2017-05-26T06:55:43.685Z,17.80
2017-05-26T06:58:13.658Z,17.80
2017-05-26T07:00:42.489Z,17.70
2017-05-26T07:03:13.046Z,18.00
2017-05-26T07:05:41.817Z,18.00
2017-05-26T07:08:10.604Z,18.00
2017-05-26T07:10:39.381Z,18.00
2017-05-26T07:13:08.149Z,18.20
2017-05-26T07:15:36.914Z,18.40
2017-05-26T07:18:05.693Z,18.60
2017-05-26T07:20:35.421Z,18.70
2017-05-26T07:23:04.197Z,18.50
2017-05-26T07:25:33.997Z,18.50
2017-05-26T07:28:02.756Z,18.60
2017-05-26T07:30:32.513Z,18.30
2017-05-26T07:33:01.300Z,18.40
2017-05-26T07:35:30.073Z,18.60
2017-05-26T07:37:58.842Z,18.70
2017-05-26T07:40:27.621Z,18.80
2017-05-26T07:42:56.393Z,18.70
2017-05-26T07:45:25.165Z,18.60
2017-05-26T07:47:57.109Z,18.80
2017-05-26T07:50:28.644Z,18.90
2017-05-26T07:53:07.401Z,18.90
2017-05-26T07:55:36.177Z,19.00
2017-05-26T07:58:10.817Z,18.80
2017-05-26T08:00:39.588Z,19.10
2017-05-26T08:03:08.360Z,19.20
2017-05-26T08:05:41.452Z,19.30
2017-05-26T08:08:15.356Z,19.20
2017-05-26T08:10:50.020Z,19.60
2017-05-26T08:16:14.188Z,19.80
2017-05-26T08:18:42.957Z,20.00
2017-05-26T08:21:11.724Z,19.50
2017-05-26T08:23:40.500Z,19.60
2017-05-26T08:26:09.276Z,19.50
2017-05-26T08:28:38.036Z,19.30
2017-05-26T08:31:06.844Z,19.70
2017-05-26T08:33:35.616Z,20.10
2017-05-26T08:36:04.388Z,20.20
2017-05-26T08:38:33.184Z,20.30
2017-05-26T08:41:01.948Z,20.40
2017-05-26T08:43:30.719Z,20.20
2017-05-26T08:45:59.493Z,20.00
2017-05-26T08:48:28.264Z,20.10
2017-05-26T08:50:57.036Z,20.30
2017-05-26T08:53:25.808Z,20.50
2017-05-26T08:55:54.580Z,20.80
2017-05-26T08:58:25.328Z,21.10
2017-05-26T09:00:54.096Z,21.10
2017-05-26T09:03:22.860Z,21.00
2017-05-26T09:05:51.644Z,20.80
2017-05-26T09:08:20.411Z,20.50
2017-05-26T09:10:49.175Z,20.60
2017-05-26T09:13:17.971Z,21.00
2017-05-26T09:15:50.197Z,21.00
2017-05-26T09:18:18.968Z,21.10
2017-05-26T09:20:47.731Z,21.40
2017-05-26T09:23:16.499Z,21.70
2017-05-26T09:25:45.283Z,21.70
2017-05-26T09:28:14.043Z,21.70
2017-05-26T09:30:42.816Z,21.80
2017-05-26T09:33:11.611Z,21.40
2017-05-26T09:35:40.376Z,21.60
2017-05-26T09:38:09.149Z,21.70
2017-05-26T09:40:37.921Z,21.80
2017-05-26T09:43:06.702Z,21.70
2017-05-26T09:45:35.472Z,21.50
2017-05-26T09:48:04.641Z,21.60
2017-05-26T09:50:33.404Z,21.90
2017-05-26T09:53:02.168Z,22.10
2017-05-26T09:55:30.952Z,22.30
2017-05-26T09:57:59.721Z,22.20
2017-05-26T10:00:28.613Z,22.10
2017-05-26T10:02:57.345Z,22.30
2017-05-26T10:05:26.353Z,22.30
2017-05-26T10:07:55.437Z,22.40
2017-05-26T10:10:24.226Z,22.50
2017-05-26T10:12:53.953Z,22.60
2017-05-26T10:15:22.737Z,22.50
2017-05-26T10:17:51.517Z,22.50
2017-05-26T10:20:20.282Z,22.50
2017-05-26T10:22:49.058Z,22.70
2017-05-26T10:25:17.865Z,22.60
2017-05-26T10:27:46.629Z,22.80
2017-05-26T10:30:15.398Z,22.60
2017-05-26T10:32:44.191Z,22.60
2017-05-26T10:35:12.949Z,22.90
2017-05-26T10:37:41.719Z,23.00
2017-05-26T10:40:10.502Z,23.00
2017-05-26T10:42:39.271Z,22.80
2017-05-26T10:45:08.038Z,23.00
2017-05-26T10:47:37.317Z,23.20
2017-05-26T10:50:06.081Z,22.90
2017-05-26T10:52:34.846Z,23.00
2017-05-26T10:55:03.641Z,23.10
2017-05-26T10:57:32.401Z,22.60
2017-05-26T11:00:01.170Z,22.90
2017-05-26T11:02:29.961Z,23.20
2017-05-26T11:04:58.721Z,23.30
2017-05-26T11:07:27.621Z,23.30
2017-05-26T11:09:56.373Z,23.70
2017-05-26T11:12:25.149Z,23.70
2017-05-26T11:14:53.922Z,23.40
2017-05-26T11:17:22.705Z,23.40
2017-05-26T11:19:51.485Z,23.30
2017-05-26T11:22:20.253Z,23.70
2017-05-26T11:24:49.033Z,23.70
2017-05-26T11:27:17.801Z,23.70
2017-05-26T11:29:46.572Z,23.60
2017-05-26T11:32:15.353Z,23.60
2017-05-26T11:34:44.125Z,23.60
2017-05-26T11:37:12.888Z,23.60
2017-05-26T11:39:41.697Z,23.20
2017-05-26T11:42:10.464Z,23.50
2017-05-26T11:44:39.232Z,23.80
2017-05-26T11:47:08.932Z,23.80
2017-05-26T11:49:37.700Z,24.30
2017-05-26T11:52:06.491Z,24.40
2017-05-26T11:54:35.283Z,24.10
2017-05-26T11:57:04.075Z,23.80
2017-05-26T11:59:33.771Z,23.60
2017-05-26T12:02:03.489Z,23.30
2017-05-26T12:04:32.264Z,23.40
2017-05-26T12:07:01.099Z,23.70
2017-05-26T12:09:29.913Z,23.90
2017-05-26T12:11:58.783Z,23.50
2017-05-26T12:14:29.367Z,23.40
2017-05-26T12:16:58.148Z,23.30
2017-05-26T12:19:26.931Z,23.70
2017-05-26T12:21:55.703Z,24.10
2017-05-26T12:24:25.463Z,24.40
2017-05-26T12:26:54.226Z,24.60
2017-05-26T12:29:23.007Z,24.00
2017-05-26T12:31:51.778Z,24.20
2017-05-26T12:34:21.510Z,24.20
2017-05-26T12:36:50.410Z,24.30
2017-05-26T12:39:19.182Z,24.60
2017-05-26T12:41:47.950Z,24.20
2017-05-26T12:44:17.690Z,24.80
2017-05-26T12:46:46.478Z,25.10
2017-05-26T12:49:15.250Z,25.10
2017-05-26T12:51:44.021Z,24.80
2017-05-26T12:54:12.793Z,25.00
2017-05-26T12:56:41.566Z,25.40
2017-05-26T12:59:10.345Z,25.50
2017-05-26T13:01:39.117Z,25.00
2017-05-26T13:04:07.881Z,25.20
2017-05-26T13:06:36.641Z,25.40
2017-05-26T13:09:05.417Z,25.50
2017-05-26T13:11:34.190Z,25.60
2017-05-26T13:14:02.997Z,25.60
2017-05-26T13:16:31.769Z,25.70
2017-05-26T13:19:00.533Z,25.40
2017-05-26T13:21:30.313Z,25.70
2017-05-26T13:23:59.101Z,25.60
2017-05-26T13:26:27.865Z,25.00
2017-05-26T13:28:57.589Z,25.10
2017-05-26T13:31:27.244Z,25.00
2017-05-26T13:33:55.985Z,25.00
2017-05-26T13:36:24.749Z,25.50
2017-05-26T13:38:53.537Z,25.70
2017-05-26T13:41:22.308Z,25.90
2017-05-26T13:43:51.080Z,25.90
2017-05-26T13:46:19.856Z,26.10
2017-05-26T13:48:48.656Z,25.90
2017-05-26T13:51:17.437Z,25.70
2017-05-26T13:53:46.216Z,25.70
2017-05-26T13:56:14.984Z,25.90
2017-05-26T13:58:43.764Z,25.70
2017-05-26T14:01:13.505Z,25.80
2017-05-26T14:03:42.268Z,26.00
2017-05-26T14:06:11.044Z,25.80
2017-05-26T14:08:39.840Z,26.10
2017-05-26T14:11:08.617Z,26.10
2017-05-26T14:13:38.335Z,25.90
2017-05-26T14:16:07.140Z,25.50
2017-05-26T14:18:35.899Z,25.70
2017-05-26T14:21:04.696Z,26.10
2017-05-26T14:23:33.475Z,25.80
2017-05-26T14:26:02.237Z,25.90
2017-05-26T14:28:31.007Z,26.00
2017-05-26T14:30:59.787Z,25.90
2017-05-26T14:33:28.555Z,25.80
2017-05-26T14:35:57.322Z,26.40
2017-05-26T14:38:26.087Z,26.30
2017-05-26T14:40:54.856Z,26.60
2017-05-26T14:43:23.619Z,26.70
2017-05-26T14:45:52.435Z,26.70
2017-05-26T14:48:20.735Z,26.70
2017-05-26T14:50:49.463Z,26.30
2017-05-26T14:53:18.291Z,26.60
2017-05-26T14:55:47.066Z,26.70
2017-05-26T14:58:16.807Z,26.20
2017-05-26T15:00:46.463Z,25.80
2017-05-26T15:03:15.255Z,25.70
2017-05-26T15:05:44.015Z,26.00
2017-05-26T15:08:12.811Z,26.40
2017-05-26T15:10:41.595Z,26.40
2017-05-26T15:13:10.351Z,26.40
2017-05-26T15:15:39.150Z,26.50
2017-05-26T15:18:07.926Z,26.20
2017-05-26T15:20:36.687Z,26.10
2017-05-26T15:23:05.472Z,26.20
2017-05-26T15:25:35.364Z,26.10
2017-05-26T15:28:04.101Z,26.00
2017-05-26T15:30:32.890Z,26.30
2017-05-26T15:33:00.895Z,26.20
2017-05-26T15:35:29.650Z,26.50
2017-05-26T15:37:58.450Z,26.40
2017-05-26T15:40:27.222Z,26.30
2017-05-26T15:42:55.989Z,26.40
2017-05-26T15:45:24.770Z,26.30
2017-05-26T15:47:53.547Z,26.30
2017-05-26T15:50:23.302Z,26.20
2017-05-26T15:52:52.110Z,25.70
2017-05-26T15:55:20.875Z,26.00
2017-05-26T15:57:49.662Z,26.30
2017-05-26T16:00:18.466Z,26.40
2017-05-26T16:02:47.238Z,26.50
2017-05-26T16:05:16.022Z,26.40
2017-05-26T16:07:44.795Z,26.30
2017-05-26T16:10:13.559Z,26.30
2017-05-26T16:12:42.322Z,26.50
2017-05-26T16:15:11.114Z,26.50
2017-05-26T16:17:39.875Z,26.40
2017-05-26T16:20:08.646Z,26.30
2017-05-26T16:22:37.422Z,26.10
2017-05-26T16:25:06.194Z,25.90
2017-05-26T16:27:34.991Z,25.90
2017-05-26T16:30:03.774Z,26.10
2017-05-26T16:32:32.554Z,26.30
2017-05-26T16:35:01.323Z,26.40
2017-05-26T16:37:30.127Z,26.10
2017-05-26T16:39:58.874Z,26.00
2017-05-26T16:42:27.665Z,25.90
2017-05-26T16:44:56.450Z,25.80
2017-05-26T16:47:25.230Z,25.80
2017-05-26T16:49:54.015Z,25.90
2017-05-26T16:52:22.826Z,25.80
2017-05-26T16:54:50.837Z,25.80
2017-05-26T16:57:19.602Z,25.70
2017-05-26T16:59:48.497Z,25.80
2017-05-26T17:02:17.257Z,25.80
2017-05-26T17:04:46.029Z,25.80
2017-05-26T17:07:14.829Z,25.90
2017-05-26T17:09:43.592Z,25.80
2017-05-26T17:12:12.364Z,25.80
2017-05-26T17:14:41.148Z,25.80
2017-05-26T17:17:10.884Z,25.80
2017-05-26T17:19:39.692Z,25.60
2017-05-26T17:22:08.474Z,25.70
2017-05-26T17:24:37.244Z,25.60
2017-05-26T17:27:06.010Z,25.60
2017-05-26T17:29:34.787Z,25.50
2017-05-26T17:32:04.507Z,25.40
2017-05-26T17:34:33.278Z,25.40
2017-05-26T17:37:02.054Z,25.20
2017-05-26T17:39:30.823Z,25.10
2017-05-26T17:41:59.586Z,25.10
2017-05-26T17:44:28.387Z,25.20
2017-05-26T17:46:57.150Z,25.20
2017-05-26T17:49:25.915Z,25.20
2017-05-26T17:51:54.686Z,25.10
2017-05-26T17:54:23.454Z,24.90
2017-05-26T17:56:52.218Z,24.80
2017-05-26T17:59:21.999Z,24.80
2017-05-26T18:01:50.769Z,24.80
2017-05-26T18:04:20.497Z,24.60
2017-05-26T18:06:49.277Z,24.60
2017-05-26T18:09:18.977Z,24.60
2017-05-26T18:11:47.733Z,24.60
2017-05-26T18:14:16.517Z,24.40
2017-05-26T18:16:46.265Z,24.40
2017-05-26T18:19:15.029Z,24.30
2017-05-26T18:21:43.825Z,24.30
2017-05-26T18:24:12.594Z,24.10
2017-05-26T18:26:41.405Z,24.00
2017-05-26T18:29:13.913Z,23.90
2017-05-26T18:31:42.697Z,23.90
2017-05-26T18:34:11.465Z,23.80
2017-05-26T18:36:40.245Z,23.70
2017-05-26T18:39:09.006Z,23.70
2017-05-26T18:41:38.765Z,23.60
2017-05-26T18:44:07.569Z,23.40
2017-05-26T18:46:37.258Z,23.30
2017-05-26T18:49:06.042Z,23.20
2017-05-26T18:51:34.837Z,23.20
2017-05-26T18:54:03.602Z,23.10
2017-05-26T18:56:33.482Z,23.10
2017-05-26T18:59:02.259Z,23.00
2017-05-26T19:01:31.022Z,23.00
2017-05-26T19:04:00.718Z,22.90
2017-05-26T19:06:29.517Z,22.70
2017-05-26T21:01:35.417Z,19.10
2017-05-26T21:04:04.199Z,19.10
2017-05-26T21:06:33.867Z,19.10
2017-05-26T21:09:03.620Z,19.10
2017-05-26T21:11:32.391Z,19.10
2017-05-26T21:14:01.167Z,19.10
2017-05-26T21:16:30.887Z,19.10
2017-05-26T21:18:59.659Z,19.10
2017-05-26T21:21:28.443Z,19.10
2017-05-26T21:23:57.289Z,19.10
2017-05-26T21:26:27.092Z,19.10
2017-05-26T21:28:57.879Z,19.00
2017-05-26T21:31:26.652Z,19.00
2017-05-26T21:37:45.059Z,18.80
2017-05-26T21:40:13.848Z,18.80
2017-05-26T21:42:42.659Z,18.80
2017-05-26T21:45:11.439Z,18.80
2017-05-26T21:47:40.304Z,18.90
2017-05-26T21:50:09.083Z,18.80
2017-05-26T21:52:37.880Z,18.80
2017-05-26T21:55:05.903Z,18.80
2017-05-26T21:57:37.807Z,18.70
2017-05-26T22:00:12.060Z,18.70
2017-05-26T22:02:45.515Z,18.70
2017-05-26T22:05:15.372Z,18.70
2017-05-26T22:07:45.992Z,18.70
2017-05-26T22:10:15.711Z,18.70
2017-05-26T22:12:44.499Z,18.60
2017-05-26T22:15:13.274Z,18.70
2017-05-26T22:17:43.067Z,18.60
2017-05-26T22:20:11.855Z,18.60
2017-05-26T22:22:40.620Z,18.60
2017-05-26T22:25:09.497Z,18.60
2017-05-26T22:27:38.275Z,18.50
2017-05-26T22:30:07.051Z,18.50
2017-05-26T22:32:35.838Z,18.60
2017-05-26T22:35:04.624Z,18.50
2017-05-26T22:37:33.427Z,18.50
2017-05-26T22:40:02.207Z,18.50
2017-05-26T22:42:30.979Z,18.50
2017-05-26T22:44:59.023Z,18.50
2017-05-26T22:47:27.839Z,18.40
2017-05-26T22:49:56.630Z,18.40
2017-05-26T22:52:25.427Z,18.40
2017-05-26T22:54:54.260Z,18.40
2017-05-26T22:57:23.042Z,18.40
2017-05-26T22:59:51.822Z,18.40
2017-05-26T23:02:20.606Z,18.30
2017-05-26T23:04:50.447Z,18.30
2017-05-26T23:07:19.235Z,18.30
2017-05-26T23:09:48.058Z,18.30
2017-05-26T23:12:16.823Z,18.30
2017-05-26T23:14:46.630Z,18.30
2017-05-26T23:17:16.322Z,18.20
2017-05-26T23:19:45.106Z,18.20
2017-05-26T23:22:13.917Z,18.10
2017-05-26T23:24:42.702Z,18.10
2017-05-26T23:29:50.402Z,18.00
2017-05-26T23:32:19.190Z,18.00
2017-05-26T23:34:47.989Z,18.00
2017-05-26T23:37:16.826Z,17.90
2017-05-26T23:39:45.598Z,17.90
2017-05-26T23:42:14.385Z,17.90
2017-05-26T23:44:43.210Z,17.90
2017-05-26T23:47:12.012Z,17.80
2017-05-26T23:49:40.793Z,17.90
2017-05-26T23:52:10.497Z,17.90
2017-05-26T23:54:39.293Z,17.80
2017-05-26T23:57:08.066Z,17.80
2017-05-26T23:59:36.877Z,17.80
